<?xml version="1.0" encoding="UTF-8" standalone="no" ?>
<gpx xmlns="http://www.topografix.com/GPX/1/1" xmlns:xsi="http://www.w3.org/2001/XMLSchema-instance" xsi:schemaLocation="http://www.topografix.com/GPX/1/1 http://www.topografix.com/GPX/1/1/gpx.xsd" version="1.1" creator="VisuGPX - https://www.visugpx.com">
  <metadata>
    <name>Roquefort / Les Echelles</name>
    <desc><![CDATA[Au départ du parking de l'office de tourisme, à l'entrée de Roquefort, une très belle randonnée sur la montagne Le Comballou, avec de magnifiques paysages tout le long du circuit.]]></desc>
  </metadata>
  <wpt lat="43.98126" lon="2.98145">
    <ele>599</ele>
    <name><![CDATA[Point de passage 1]]></name>
    <type><![CDATA[GENERIC]]></type>
  </wpt>
  <wpt lat="43.98133" lon="2.98179">
    <ele>599</ele>
    <name><![CDATA[Point de passage 2]]></name>
    <type><![CDATA[GENERIC]]></type>
  </wpt>
  <trk>
    <name><![CDATA[Roquefort / Les Echelles]]></name>
    <trkseg>
      <trkpt lat="43.98126" lon="2.98145">
        <ele>599</ele>
        <time>2025-09-25T07:03:01.000Z</time>
      </trkpt>
      <trkpt lat="43.98125" lon="2.9815">
        <ele>599</ele>
        <time>2025-09-25T07:03:04.000Z</time>
      </trkpt>
      <trkpt lat="43.98113" lon="2.98161">
        <ele>599</ele>
        <time>2025-09-25T07:03:54.000Z</time>
      </trkpt>
      <trkpt lat="43.98097" lon="2.98153">
        <ele>599</ele>
        <time>2025-09-25T07:04:07.000Z</time>
      </trkpt>
      <trkpt lat="43.98081" lon="2.98158">
        <ele>609</ele>
        <time>2025-09-25T07:04:37.000Z</time>
      </trkpt>
      <trkpt lat="43.98065" lon="2.98145">
        <ele>611</ele>
        <time>2025-09-25T07:05:17.000Z</time>
      </trkpt>
      <trkpt lat="43.98052" lon="2.98127">
        <ele>614</ele>
        <time>2025-09-25T07:05:36.000Z</time>
      </trkpt>
      <trkpt lat="43.98037" lon="2.98112">
        <ele>617</ele>
        <time>2025-09-25T07:05:58.000Z</time>
      </trkpt>
      <trkpt lat="43.98023" lon="2.98099">
        <ele>620</ele>
        <time>2025-09-25T07:06:35.000Z</time>
      </trkpt>
      <trkpt lat="43.98006" lon="2.98109">
        <ele>621</ele>
        <time>2025-09-25T07:06:57.000Z</time>
      </trkpt>
      <trkpt lat="43.97993" lon="2.98121">
        <ele>623</ele>
        <time>2025-09-25T07:07:20.000Z</time>
      </trkpt>
      <trkpt lat="43.97985" lon="2.98104">
        <ele>623</ele>
        <time>2025-09-25T07:07:51.000Z</time>
      </trkpt>
      <trkpt lat="43.97989" lon="2.98081">
        <ele>625</ele>
        <time>2025-09-25T07:08:46.000Z</time>
      </trkpt>
      <trkpt lat="43.97995" lon="2.98058">
        <ele>627</ele>
        <time>2025-09-25T07:09:07.000Z</time>
      </trkpt>
      <trkpt lat="43.97999" lon="2.98034">
        <ele>629</ele>
        <time>2025-09-25T07:09:24.000Z</time>
      </trkpt>
      <trkpt lat="43.98003" lon="2.98009">
        <ele>630</ele>
        <time>2025-09-25T07:09:38.000Z</time>
      </trkpt>
      <trkpt lat="43.97998" lon="2.97986">
        <ele>631</ele>
        <time>2025-09-25T07:09:57.000Z</time>
      </trkpt>
      <trkpt lat="43.97984" lon="2.97982">
        <ele>630</ele>
        <time>2025-09-25T07:10:14.000Z</time>
      </trkpt>
      <trkpt lat="43.97974" lon="2.98001">
        <ele>633</ele>
        <time>2025-09-25T07:10:33.000Z</time>
      </trkpt>
      <trkpt lat="43.9797" lon="2.98026">
        <ele>637</ele>
        <time>2025-09-25T07:10:50.000Z</time>
      </trkpt>
      <trkpt lat="43.97964" lon="2.98051">
        <ele>638</ele>
        <time>2025-09-25T07:11:08.000Z</time>
      </trkpt>
      <trkpt lat="43.97956" lon="2.98075">
        <ele>642</ele>
        <time>2025-09-25T07:11:24.000Z</time>
      </trkpt>
      <trkpt lat="43.97945" lon="2.98096">
        <ele>643</ele>
        <time>2025-09-25T07:11:40.000Z</time>
      </trkpt>
      <trkpt lat="43.97933" lon="2.98117">
        <ele>645</ele>
        <time>2025-09-25T07:11:59.000Z</time>
      </trkpt>
      <trkpt lat="43.97922" lon="2.98138">
        <ele>646</ele>
        <time>2025-09-25T07:12:15.000Z</time>
      </trkpt>
      <trkpt lat="43.97909" lon="2.98158">
        <ele>648</ele>
        <time>2025-09-25T07:12:32.000Z</time>
      </trkpt>
      <trkpt lat="43.97896" lon="2.98179">
        <ele>650</ele>
        <time>2025-09-25T07:12:48.000Z</time>
      </trkpt>
      <trkpt lat="43.97887" lon="2.982">
        <ele>652</ele>
        <time>2025-09-25T07:13:05.000Z</time>
      </trkpt>
      <trkpt lat="43.97878" lon="2.98224">
        <ele>653</ele>
        <time>2025-09-25T07:13:22.000Z</time>
      </trkpt>
      <trkpt lat="43.9787" lon="2.98247">
        <ele>654</ele>
        <time>2025-09-25T07:13:39.000Z</time>
      </trkpt>
      <trkpt lat="43.97861" lon="2.98269">
        <ele>655</ele>
        <time>2025-09-25T07:13:56.000Z</time>
      </trkpt>
      <trkpt lat="43.9785" lon="2.98288">
        <ele>655</ele>
        <time>2025-09-25T07:14:13.000Z</time>
      </trkpt>
      <trkpt lat="43.97837" lon="2.98307">
        <ele>655</ele>
        <time>2025-09-25T07:14:31.000Z</time>
      </trkpt>
      <trkpt lat="43.97833" lon="2.9833">
        <ele>655</ele>
        <time>2025-09-25T07:14:47.000Z</time>
      </trkpt>
      <trkpt lat="43.97828" lon="2.98355">
        <ele>655</ele>
        <time>2025-09-25T07:15:03.000Z</time>
      </trkpt>
      <trkpt lat="43.97825" lon="2.9838">
        <ele>655</ele>
        <time>2025-09-25T07:15:18.000Z</time>
      </trkpt>
      <trkpt lat="43.97823" lon="2.98405">
        <ele>655</ele>
        <time>2025-09-25T07:15:33.000Z</time>
      </trkpt>
      <trkpt lat="43.97822" lon="2.9843">
        <ele>655</ele>
        <time>2025-09-25T07:15:48.000Z</time>
      </trkpt>
      <trkpt lat="43.9782" lon="2.98456">
        <ele>654</ele>
        <time>2025-09-25T07:16:04.000Z</time>
      </trkpt>
      <trkpt lat="43.97821" lon="2.98482">
        <ele>654</ele>
        <time>2025-09-25T07:16:19.000Z</time>
      </trkpt>
      <trkpt lat="43.97825" lon="2.98506">
        <ele>653</ele>
        <time>2025-09-25T07:16:32.000Z</time>
      </trkpt>
      <trkpt lat="43.97824" lon="2.9853">
        <ele>652</ele>
        <time>2025-09-25T07:16:46.000Z</time>
      </trkpt>
      <trkpt lat="43.97817" lon="2.98553">
        <ele>651</ele>
        <time>2025-09-25T07:16:59.000Z</time>
      </trkpt>
      <trkpt lat="43.97805" lon="2.98574">
        <ele>650</ele>
        <time>2025-09-25T07:17:13.000Z</time>
      </trkpt>
      <trkpt lat="43.97792" lon="2.98594">
        <ele>648</ele>
        <time>2025-09-25T07:17:29.000Z</time>
      </trkpt>
      <trkpt lat="43.97781" lon="2.98614">
        <ele>647</ele>
        <time>2025-09-25T07:17:44.000Z</time>
      </trkpt>
      <trkpt lat="43.97769" lon="2.98633">
        <ele>646</ele>
        <time>2025-09-25T07:17:59.000Z</time>
      </trkpt>
      <trkpt lat="43.97754" lon="2.98647">
        <ele>647</ele>
        <time>2025-09-25T07:18:14.000Z</time>
      </trkpt>
      <trkpt lat="43.97737" lon="2.98651">
        <ele>647</ele>
        <time>2025-09-25T07:18:29.000Z</time>
      </trkpt>
      <trkpt lat="43.97721" lon="2.98652">
        <ele>649</ele>
        <time>2025-09-25T07:18:54.000Z</time>
      </trkpt>
      <trkpt lat="43.97723" lon="2.98633">
        <ele>653</ele>
        <time>2025-09-25T07:19:18.000Z</time>
      </trkpt>
      <trkpt lat="43.97734" lon="2.98616">
        <ele>658</ele>
        <time>2025-09-25T07:19:40.000Z</time>
      </trkpt>
      <trkpt lat="43.97732" lon="2.98594">
        <ele>665</ele>
        <time>2025-09-25T07:20:16.000Z</time>
      </trkpt>
      <trkpt lat="43.97716" lon="2.98591">
        <ele>671</ele>
        <time>2025-09-25T07:20:53.000Z</time>
      </trkpt>
      <trkpt lat="43.97701" lon="2.98602">
        <ele>679</ele>
        <time>2025-09-25T07:22:09.000Z</time>
      </trkpt>
      <trkpt lat="43.97684" lon="2.98603">
        <ele>687</ele>
        <time>2025-09-25T07:23:07.000Z</time>
      </trkpt>
      <trkpt lat="43.97676" lon="2.98584">
        <ele>695</ele>
        <time>2025-09-25T07:23:55.000Z</time>
      </trkpt>
      <trkpt lat="43.97676" lon="2.9856">
        <ele>703</ele>
        <time>2025-09-25T07:24:41.000Z</time>
      </trkpt>
      <trkpt lat="43.97668" lon="2.9854">
        <ele>710</ele>
        <time>2025-09-25T07:26:03.000Z</time>
      </trkpt>
      <trkpt lat="43.97666" lon="2.98516">
        <ele>717</ele>
        <time>2025-09-25T07:27:30.000Z</time>
      </trkpt>
      <trkpt lat="43.97665" lon="2.98491">
        <ele>724</ele>
        <time>2025-09-25T07:33:00.000Z</time>
      </trkpt>
      <trkpt lat="43.9767" lon="2.98467">
        <ele>730</ele>
        <time>2025-09-25T07:33:25.000Z</time>
      </trkpt>
      <trkpt lat="43.97679" lon="2.98444">
        <ele>736</ele>
        <time>2025-09-25T07:34:00.000Z</time>
      </trkpt>
      <trkpt lat="43.9768" lon="2.98418">
        <ele>741</ele>
        <time>2025-09-25T07:34:48.000Z</time>
      </trkpt>
      <trkpt lat="43.97679" lon="2.98393">
        <ele>745</ele>
        <time>2025-09-25T07:35:32.000Z</time>
      </trkpt>
      <trkpt lat="43.97673" lon="2.98371">
        <ele>748</ele>
        <time>2025-09-25T07:36:23.000Z</time>
      </trkpt>
      <trkpt lat="43.9767" lon="2.98347">
        <ele>751</ele>
        <time>2025-09-25T07:37:43.000Z</time>
      </trkpt>
      <trkpt lat="43.97676" lon="2.98325">
        <ele>752</ele>
        <time>2025-09-25T07:39:51.000Z</time>
      </trkpt>
      <trkpt lat="43.97681" lon="2.983">
        <ele>754</ele>
        <time>2025-09-25T07:40:33.000Z</time>
      </trkpt>
      <trkpt lat="43.97685" lon="2.98275">
        <ele>755</ele>
        <time>2025-09-25T07:41:15.000Z</time>
      </trkpt>
      <trkpt lat="43.97688" lon="2.9825">
        <ele>757</ele>
        <time>2025-09-25T07:41:43.000Z</time>
      </trkpt>
      <trkpt lat="43.97686" lon="2.98227">
        <ele>760</ele>
        <time>2025-09-25T07:42:16.000Z</time>
      </trkpt>
      <trkpt lat="43.97672" lon="2.98228">
        <ele>762</ele>
        <time>2025-09-25T07:43:31.000Z</time>
      </trkpt>
      <trkpt lat="43.97664" lon="2.98242">
        <ele>765</ele>
        <time>2025-09-25T07:44:36.000Z</time>
      </trkpt>
      <trkpt lat="43.97659" lon="2.98224">
        <ele>767</ele>
        <time>2025-09-25T07:45:46.000Z</time>
      </trkpt>
      <trkpt lat="43.97658" lon="2.98201">
        <ele>769</ele>
        <time>2025-09-25T07:46:12.000Z</time>
      </trkpt>
      <trkpt lat="43.97652" lon="2.9818">
        <ele>771</ele>
        <time>2025-09-25T07:46:51.000Z</time>
      </trkpt>
      <trkpt lat="43.97661" lon="2.98162">
        <ele>772</ele>
        <time>2025-09-25T07:47:15.000Z</time>
      </trkpt>
      <trkpt lat="43.97672" lon="2.98141">
        <ele>773</ele>
        <time>2025-09-25T07:47:50.000Z</time>
      </trkpt>
      <trkpt lat="43.97681" lon="2.98121">
        <ele>775</ele>
        <time>2025-09-25T07:48:08.000Z</time>
      </trkpt>
      <trkpt lat="43.97682" lon="2.98097">
        <ele>776</ele>
        <time>2025-09-25T07:48:37.000Z</time>
      </trkpt>
      <trkpt lat="43.97691" lon="2.98076">
        <ele>776</ele>
        <time>2025-09-25T07:49:18.000Z</time>
      </trkpt>
      <trkpt lat="43.97698" lon="2.98053">
        <ele>777</ele>
        <time>2025-09-25T07:50:02.000Z</time>
      </trkpt>
      <trkpt lat="43.97703" lon="2.98028">
        <ele>777</ele>
        <time>2025-09-25T07:52:21.000Z</time>
      </trkpt>
      <trkpt lat="43.97707" lon="2.98003">
        <ele>778</ele>
        <time>2025-09-25T07:52:51.000Z</time>
      </trkpt>
      <trkpt lat="43.97713" lon="2.97979">
        <ele>780</ele>
        <time>2025-09-25T07:53:20.000Z</time>
      </trkpt>
      <trkpt lat="43.97725" lon="2.97958">
        <ele>782</ele>
        <time>2025-09-25T07:53:48.000Z</time>
      </trkpt>
      <trkpt lat="43.97737" lon="2.97939">
        <ele>784</ele>
        <time>2025-09-25T07:54:24.000Z</time>
      </trkpt>
      <trkpt lat="43.97744" lon="2.97917">
        <ele>787</ele>
        <time>2025-09-25T07:55:02.000Z</time>
      </trkpt>
      <trkpt lat="43.97744" lon="2.97892">
        <ele>789</ele>
        <time>2025-09-25T07:56:15.000Z</time>
      </trkpt>
      <trkpt lat="43.97749" lon="2.97868">
        <ele>791</ele>
        <time>2025-09-25T07:56:39.000Z</time>
      </trkpt>
      <trkpt lat="43.97758" lon="2.97846">
        <ele>794</ele>
        <time>2025-09-25T07:57:12.000Z</time>
      </trkpt>
      <trkpt lat="43.97763" lon="2.97823">
        <ele>799</ele>
        <time>2025-09-25T07:57:51.000Z</time>
      </trkpt>
      <trkpt lat="43.97758" lon="2.97802">
        <ele>805</ele>
        <time>2025-09-25T07:58:27.000Z</time>
      </trkpt>
      <trkpt lat="43.97741" lon="2.97801">
        <ele>810</ele>
        <time>2025-09-25T07:59:09.000Z</time>
      </trkpt>
      <trkpt lat="43.97728" lon="2.97816">
        <ele>815</ele>
        <time>2025-09-25T07:59:46.000Z</time>
      </trkpt>
      <trkpt lat="43.97721" lon="2.9784">
        <ele>818</ele>
        <time>2025-09-25T08:04:00.000Z</time>
      </trkpt>
      <trkpt lat="43.97709" lon="2.97859">
        <ele>820</ele>
        <time>2025-09-25T08:22:35.000Z</time>
      </trkpt>
      <trkpt lat="43.97693" lon="2.9787">
        <ele>822</ele>
        <time>2025-09-25T08:22:53.000Z</time>
      </trkpt>
      <trkpt lat="43.97686" lon="2.97892">
        <ele>823</ele>
        <time>2025-09-25T08:23:12.000Z</time>
      </trkpt>
      <trkpt lat="43.97679" lon="2.97916">
        <ele>823</ele>
        <time>2025-09-25T08:23:28.000Z</time>
      </trkpt>
      <trkpt lat="43.97667" lon="2.97934">
        <ele>824</ele>
        <time>2025-09-25T08:23:58.000Z</time>
      </trkpt>
      <trkpt lat="43.97666" lon="2.97957">
        <ele>824</ele>
        <time>2025-09-25T08:24:48.000Z</time>
      </trkpt>
      <trkpt lat="43.97674" lon="2.97979">
        <ele>824</ele>
        <time>2025-09-25T08:25:02.000Z</time>
      </trkpt>
      <trkpt lat="43.97674" lon="2.98002">
        <ele>825</ele>
        <time>2025-09-25T08:25:20.000Z</time>
      </trkpt>
      <trkpt lat="43.97662" lon="2.98017">
        <ele>824</ele>
        <time>2025-09-25T08:25:39.000Z</time>
      </trkpt>
      <trkpt lat="43.97656" lon="2.98041">
        <ele>824</ele>
        <time>2025-09-25T08:26:01.000Z</time>
      </trkpt>
      <trkpt lat="43.97657" lon="2.98068">
        <ele>824</ele>
        <time>2025-09-25T08:26:18.000Z</time>
      </trkpt>
      <trkpt lat="43.97652" lon="2.98094">
        <ele>824</ele>
        <time>2025-09-25T08:26:38.000Z</time>
      </trkpt>
      <trkpt lat="43.97643" lon="2.98115">
        <ele>825</ele>
        <time>2025-09-25T08:26:55.000Z</time>
      </trkpt>
      <trkpt lat="43.9763" lon="2.98134">
        <ele>825</ele>
        <time>2025-09-25T08:27:12.000Z</time>
      </trkpt>
      <trkpt lat="43.9762" lon="2.98155">
        <ele>826</ele>
        <time>2025-09-25T08:27:29.000Z</time>
      </trkpt>
      <trkpt lat="43.97614" lon="2.9818">
        <ele>827</ele>
        <time>2025-09-25T08:27:48.000Z</time>
      </trkpt>
      <trkpt lat="43.97608" lon="2.98205">
        <ele>828</ele>
        <time>2025-09-25T08:28:06.000Z</time>
      </trkpt>
      <trkpt lat="43.97597" lon="2.98228">
        <ele>829</ele>
        <time>2025-09-25T08:28:24.000Z</time>
      </trkpt>
      <trkpt lat="43.97587" lon="2.98249">
        <ele>831</ele>
        <time>2025-09-25T08:28:41.000Z</time>
      </trkpt>
      <trkpt lat="43.97587" lon="2.98274">
        <ele>832</ele>
        <time>2025-09-25T08:28:59.000Z</time>
      </trkpt>
      <trkpt lat="43.97591" lon="2.98299">
        <ele>832</ele>
        <time>2025-09-25T08:29:17.000Z</time>
      </trkpt>
      <trkpt lat="43.97587" lon="2.98324">
        <ele>833</ele>
        <time>2025-09-25T08:29:33.000Z</time>
      </trkpt>
      <trkpt lat="43.97577" lon="2.98344">
        <ele>833</ele>
        <time>2025-09-25T08:29:50.000Z</time>
      </trkpt>
      <trkpt lat="43.9756" lon="2.98351">
        <ele>832</ele>
        <time>2025-09-25T08:30:07.000Z</time>
      </trkpt>
      <trkpt lat="43.97542" lon="2.98354">
        <ele>831</ele>
        <time>2025-09-25T08:30:26.000Z</time>
      </trkpt>
      <trkpt lat="43.97523" lon="2.98359">
        <ele>830</ele>
        <time>2025-09-25T08:30:43.000Z</time>
      </trkpt>
      <trkpt lat="43.97505" lon="2.98366">
        <ele>829</ele>
        <time>2025-09-25T08:30:59.000Z</time>
      </trkpt>
      <trkpt lat="43.97491" lon="2.98381">
        <ele>827</ele>
        <time>2025-09-25T08:31:16.000Z</time>
      </trkpt>
      <trkpt lat="43.97493" lon="2.98405">
        <ele>825</ele>
        <time>2025-09-25T08:31:34.000Z</time>
      </trkpt>
      <trkpt lat="43.97501" lon="2.98427">
        <ele>824</ele>
        <time>2025-09-25T08:31:49.000Z</time>
      </trkpt>
      <trkpt lat="43.9751" lon="2.98448">
        <ele>823</ele>
        <time>2025-09-25T08:32:04.000Z</time>
      </trkpt>
      <trkpt lat="43.97522" lon="2.98468">
        <ele>822</ele>
        <time>2025-09-25T08:32:20.000Z</time>
      </trkpt>
      <trkpt lat="43.97536" lon="2.98486">
        <ele>821</ele>
        <time>2025-09-25T08:32:36.000Z</time>
      </trkpt>
      <trkpt lat="43.97549" lon="2.98505">
        <ele>820</ele>
        <time>2025-09-25T08:32:53.000Z</time>
      </trkpt>
      <trkpt lat="43.97556" lon="2.98525">
        <ele>818</ele>
        <time>2025-09-25T08:33:12.000Z</time>
      </trkpt>
      <trkpt lat="43.97546" lon="2.98542">
        <ele>815</ele>
        <time>2025-09-25T08:33:32.000Z</time>
      </trkpt>
      <trkpt lat="43.97536" lon="2.98564">
        <ele>813</ele>
        <time>2025-09-25T08:33:51.000Z</time>
      </trkpt>
      <trkpt lat="43.97527" lon="2.98585">
        <ele>811</ele>
        <time>2025-09-25T08:34:15.000Z</time>
      </trkpt>
      <trkpt lat="43.97517" lon="2.98606">
        <ele>809</ele>
        <time>2025-09-25T08:34:34.000Z</time>
      </trkpt>
      <trkpt lat="43.97505" lon="2.98627">
        <ele>808</ele>
        <time>2025-09-25T08:34:55.000Z</time>
      </trkpt>
      <trkpt lat="43.97496" lon="2.98649">
        <ele>807</ele>
        <time>2025-09-25T08:35:16.000Z</time>
      </trkpt>
      <trkpt lat="43.97488" lon="2.98673">
        <ele>806</ele>
        <time>2025-09-25T08:35:35.000Z</time>
      </trkpt>
      <trkpt lat="43.97488" lon="2.98697">
        <ele>805</ele>
        <time>2025-09-25T08:35:55.000Z</time>
      </trkpt>
      <trkpt lat="43.97481" lon="2.98721">
        <ele>804</ele>
        <time>2025-09-25T08:36:29.000Z</time>
      </trkpt>
      <trkpt lat="43.9747" lon="2.98743">
        <ele>804</ele>
        <time>2025-09-25T08:38:49.000Z</time>
      </trkpt>
      <trkpt lat="43.97457" lon="2.98762">
        <ele>803</ele>
        <time>2025-09-25T08:39:31.000Z</time>
      </trkpt>
      <trkpt lat="43.97444" lon="2.98781">
        <ele>803</ele>
        <time>2025-09-25T08:41:02.000Z</time>
      </trkpt>
      <trkpt lat="43.97431" lon="2.988">
        <ele>802</ele>
        <time>2025-09-25T08:41:30.000Z</time>
      </trkpt>
      <trkpt lat="43.97415" lon="2.98811">
        <ele>802</ele>
        <time>2025-09-25T08:41:51.000Z</time>
      </trkpt>
      <trkpt lat="43.97403" lon="2.98829">
        <ele>802</ele>
        <time>2025-09-25T08:42:12.000Z</time>
      </trkpt>
      <trkpt lat="43.97388" lon="2.98845">
        <ele>801</ele>
        <time>2025-09-25T08:42:29.000Z</time>
      </trkpt>
      <trkpt lat="43.97373" lon="2.98863">
        <ele>800</ele>
        <time>2025-09-25T08:42:47.000Z</time>
      </trkpt>
      <trkpt lat="43.97361" lon="2.98882">
        <ele>800</ele>
        <time>2025-09-25T08:43:04.000Z</time>
      </trkpt>
      <trkpt lat="43.97347" lon="2.98899">
        <ele>799</ele>
        <time>2025-09-25T08:43:23.000Z</time>
      </trkpt>
      <trkpt lat="43.97331" lon="2.98912">
        <ele>798</ele>
        <time>2025-09-25T08:43:40.000Z</time>
      </trkpt>
      <trkpt lat="43.97316" lon="2.98925">
        <ele>798</ele>
        <time>2025-09-25T08:43:56.000Z</time>
      </trkpt>
      <trkpt lat="43.97301" lon="2.98941">
        <ele>798</ele>
        <time>2025-09-25T08:44:13.000Z</time>
      </trkpt>
      <trkpt lat="43.97289" lon="2.9896">
        <ele>797</ele>
        <time>2025-09-25T08:44:29.000Z</time>
      </trkpt>
      <trkpt lat="43.97274" lon="2.98975">
        <ele>796</ele>
        <time>2025-09-25T08:44:47.000Z</time>
      </trkpt>
      <trkpt lat="43.97259" lon="2.98987">
        <ele>794</ele>
        <time>2025-09-25T08:45:03.000Z</time>
      </trkpt>
      <trkpt lat="43.9725" lon="2.99008">
        <ele>793</ele>
        <time>2025-09-25T08:45:20.000Z</time>
      </trkpt>
      <trkpt lat="43.9724" lon="2.9903">
        <ele>792</ele>
        <time>2025-09-25T08:45:39.000Z</time>
      </trkpt>
      <trkpt lat="43.97234" lon="2.99055">
        <ele>791</ele>
        <time>2025-09-25T08:45:58.000Z</time>
      </trkpt>
      <trkpt lat="43.97228" lon="2.99081">
        <ele>791</ele>
        <time>2025-09-25T08:46:18.000Z</time>
      </trkpt>
      <trkpt lat="43.97222" lon="2.99105">
        <ele>791</ele>
        <time>2025-09-25T08:46:42.000Z</time>
      </trkpt>
      <trkpt lat="43.97216" lon="2.99129">
        <ele>791</ele>
        <time>2025-09-25T08:47:01.000Z</time>
      </trkpt>
      <trkpt lat="43.97204" lon="2.99148">
        <ele>792</ele>
        <time>2025-09-25T08:47:21.000Z</time>
      </trkpt>
      <trkpt lat="43.97195" lon="2.99169">
        <ele>793</ele>
        <time>2025-09-25T08:47:41.000Z</time>
      </trkpt>
      <trkpt lat="43.97183" lon="2.99188">
        <ele>794</ele>
        <time>2025-09-25T08:48:00.000Z</time>
      </trkpt>
      <trkpt lat="43.97169" lon="2.99203">
        <ele>795</ele>
        <time>2025-09-25T08:48:21.000Z</time>
      </trkpt>
      <trkpt lat="43.97162" lon="2.99225">
        <ele>797</ele>
        <time>2025-09-25T08:48:39.000Z</time>
      </trkpt>
      <trkpt lat="43.97153" lon="2.99248">
        <ele>798</ele>
        <time>2025-09-25T08:48:59.000Z</time>
      </trkpt>
      <trkpt lat="43.97148" lon="2.99273">
        <ele>799</ele>
        <time>2025-09-25T08:49:20.000Z</time>
      </trkpt>
      <trkpt lat="43.9714" lon="2.99297">
        <ele>799</ele>
        <time>2025-09-25T08:49:41.000Z</time>
      </trkpt>
      <trkpt lat="43.97133" lon="2.99322">
        <ele>800</ele>
        <time>2025-09-25T08:50:02.000Z</time>
      </trkpt>
      <trkpt lat="43.97124" lon="2.99344">
        <ele>800</ele>
        <time>2025-09-25T08:50:22.000Z</time>
      </trkpt>
      <trkpt lat="43.97117" lon="2.99368">
        <ele>800</ele>
        <time>2025-09-25T08:50:42.000Z</time>
      </trkpt>
      <trkpt lat="43.97115" lon="2.99395">
        <ele>801</ele>
        <time>2025-09-25T08:51:01.000Z</time>
      </trkpt>
      <trkpt lat="43.97115" lon="2.9942">
        <ele>800</ele>
        <time>2025-09-25T08:51:18.000Z</time>
      </trkpt>
      <trkpt lat="43.97113" lon="2.99446">
        <ele>800</ele>
        <time>2025-09-25T08:51:38.000Z</time>
      </trkpt>
      <trkpt lat="43.97111" lon="2.99472">
        <ele>799</ele>
        <time>2025-09-25T08:51:58.000Z</time>
      </trkpt>
      <trkpt lat="43.97108" lon="2.99498">
        <ele>799</ele>
        <time>2025-09-25T08:52:17.000Z</time>
      </trkpt>
      <trkpt lat="43.97104" lon="2.99524">
        <ele>801</ele>
        <time>2025-09-25T08:52:42.000Z</time>
      </trkpt>
      <trkpt lat="43.97104" lon="2.99551">
        <ele>803</ele>
        <time>2025-09-25T08:53:01.000Z</time>
      </trkpt>
      <trkpt lat="43.97101" lon="2.99576">
        <ele>805</ele>
        <time>2025-09-25T08:53:18.000Z</time>
      </trkpt>
      <trkpt lat="43.97089" lon="2.99592">
        <ele>807</ele>
        <time>2025-09-25T08:53:58.000Z</time>
      </trkpt>
      <trkpt lat="43.97085" lon="2.99617">
        <ele>808</ele>
        <time>2025-09-25T08:54:25.000Z</time>
      </trkpt>
      <trkpt lat="43.97079" lon="2.9964">
        <ele>810</ele>
        <time>2025-09-25T08:54:47.000Z</time>
      </trkpt>
      <trkpt lat="43.97073" lon="2.99662">
        <ele>813</ele>
        <time>2025-09-25T08:56:05.000Z</time>
      </trkpt>
      <trkpt lat="43.97058" lon="2.99678">
        <ele>815</ele>
        <time>2025-09-25T08:56:22.000Z</time>
      </trkpt>
      <trkpt lat="43.97045" lon="2.99695">
        <ele>818</ele>
        <time>2025-09-25T08:56:40.000Z</time>
      </trkpt>
      <trkpt lat="43.97031" lon="2.99711">
        <ele>820</ele>
        <time>2025-09-25T08:56:56.000Z</time>
      </trkpt>
      <trkpt lat="43.97018" lon="2.99728">
        <ele>823</ele>
        <time>2025-09-25T08:57:17.000Z</time>
      </trkpt>
      <trkpt lat="43.97011" lon="2.99751">
        <ele>825</ele>
        <time>2025-09-25T08:57:40.000Z</time>
      </trkpt>
      <trkpt lat="43.97001" lon="2.99772">
        <ele>825</ele>
        <time>2025-09-25T08:58:03.000Z</time>
      </trkpt>
      <trkpt lat="43.96987" lon="2.99791">
        <ele>826</ele>
        <time>2025-09-25T08:58:26.000Z</time>
      </trkpt>
      <trkpt lat="43.96971" lon="2.99801">
        <ele>826</ele>
        <time>2025-09-25T08:58:43.000Z</time>
      </trkpt>
      <trkpt lat="43.96959" lon="2.99818">
        <ele>827</ele>
        <time>2025-09-25T08:59:00.000Z</time>
      </trkpt>
      <trkpt lat="43.96953" lon="2.9984">
        <ele>828</ele>
        <time>2025-09-25T08:59:22.000Z</time>
      </trkpt>
      <trkpt lat="43.96958" lon="2.99862">
        <ele>828</ele>
        <time>2025-09-25T08:59:43.000Z</time>
      </trkpt>
      <trkpt lat="43.9697" lon="2.99875">
        <ele>828</ele>
        <time>2025-09-25T09:00:05.000Z</time>
      </trkpt>
      <trkpt lat="43.96963" lon="2.99894">
        <ele>829</ele>
        <time>2025-09-25T09:00:35.000Z</time>
      </trkpt>
      <trkpt lat="43.96951" lon="2.99914">
        <ele>830</ele>
        <time>2025-09-25T09:00:59.000Z</time>
      </trkpt>
      <trkpt lat="43.96937" lon="2.9993">
        <ele>833</ele>
        <time>2025-09-25T09:01:21.000Z</time>
      </trkpt>
      <trkpt lat="43.96927" lon="2.99951">
        <ele>834</ele>
        <time>2025-09-25T09:01:50.000Z</time>
      </trkpt>
      <trkpt lat="43.96911" lon="2.99962">
        <ele>836</ele>
        <time>2025-09-25T09:02:09.000Z</time>
      </trkpt>
      <trkpt lat="43.96896" lon="2.99976">
        <ele>837</ele>
        <time>2025-09-25T09:02:21.000Z</time>
      </trkpt>
      <trkpt lat="43.9688" lon="2.99986">
        <ele>838</ele>
        <time>2025-09-25T09:02:46.000Z</time>
      </trkpt>
      <trkpt lat="43.96862" lon="2.99992">
        <ele>839</ele>
        <time>2025-09-25T09:03:04.000Z</time>
      </trkpt>
      <trkpt lat="43.96845" lon="2.99999">
        <ele>840</ele>
        <time>2025-09-25T09:03:19.000Z</time>
      </trkpt>
      <trkpt lat="43.96828" lon="3">
        <ele>842</ele>
        <time>2025-09-25T09:03:38.000Z</time>
      </trkpt>
      <trkpt lat="43.9681" lon="3.00003">
        <ele>844</ele>
        <time>2025-09-25T09:03:55.000Z</time>
      </trkpt>
      <trkpt lat="43.96792" lon="3.0001">
        <ele>846</ele>
        <time>2025-09-25T09:04:14.000Z</time>
      </trkpt>
      <trkpt lat="43.96775" lon="3.00012">
        <ele>848</ele>
        <time>2025-09-25T09:04:37.000Z</time>
      </trkpt>
      <trkpt lat="43.96767" lon="3.00026">
        <ele>849</ele>
        <time>2025-09-25T09:11:53.000Z</time>
      </trkpt>
      <trkpt lat="43.9677" lon="3.00009">
        <ele>851</ele>
        <time>2025-09-25T09:13:07.000Z</time>
      </trkpt>
      <trkpt lat="43.9677" lon="2.99984">
        <ele>851</ele>
        <time>2025-09-25T09:13:31.000Z</time>
      </trkpt>
      <trkpt lat="43.96771" lon="2.99958">
        <ele>851</ele>
        <time>2025-09-25T09:13:50.000Z</time>
      </trkpt>
      <trkpt lat="43.96775" lon="2.99933">
        <ele>852</ele>
        <time>2025-09-25T09:14:10.000Z</time>
      </trkpt>
      <trkpt lat="43.96779" lon="2.99907">
        <ele>852</ele>
        <time>2025-09-25T09:14:27.000Z</time>
      </trkpt>
      <trkpt lat="43.96781" lon="2.99883">
        <ele>852</ele>
        <time>2025-09-25T09:14:42.000Z</time>
      </trkpt>
      <trkpt lat="43.96789" lon="2.99862">
        <ele>852</ele>
        <time>2025-09-25T09:14:58.000Z</time>
      </trkpt>
      <trkpt lat="43.96792" lon="2.99837">
        <ele>851</ele>
        <time>2025-09-25T09:15:13.000Z</time>
      </trkpt>
      <trkpt lat="43.96792" lon="2.99811">
        <ele>849</ele>
        <time>2025-09-25T09:15:28.000Z</time>
      </trkpt>
      <trkpt lat="43.96789" lon="2.99785">
        <ele>848</ele>
        <time>2025-09-25T09:15:47.000Z</time>
      </trkpt>
      <trkpt lat="43.96787" lon="2.99759">
        <ele>846</ele>
        <time>2025-09-25T09:16:02.000Z</time>
      </trkpt>
      <trkpt lat="43.96787" lon="2.99732">
        <ele>843</ele>
        <time>2025-09-25T09:16:18.000Z</time>
      </trkpt>
      <trkpt lat="43.96788" lon="2.99705">
        <ele>840</ele>
        <time>2025-09-25T09:16:35.000Z</time>
      </trkpt>
      <trkpt lat="43.96791" lon="2.99682">
        <ele>837</ele>
        <time>2025-09-25T09:16:52.000Z</time>
      </trkpt>
      <trkpt lat="43.96776" lon="2.99679">
        <ele>833</ele>
        <time>2025-09-25T09:17:14.000Z</time>
      </trkpt>
      <trkpt lat="43.96762" lon="2.99692">
        <ele>830</ele>
        <time>2025-09-25T09:17:59.000Z</time>
      </trkpt>
      <trkpt lat="43.96757" lon="2.99716">
        <ele>826</ele>
        <time>2025-09-25T09:18:51.000Z</time>
      </trkpt>
      <trkpt lat="43.96754" lon="2.99741">
        <ele>823</ele>
        <time>2025-09-25T09:19:05.000Z</time>
      </trkpt>
      <trkpt lat="43.9675" lon="2.99766">
        <ele>820</ele>
        <time>2025-09-25T09:19:27.000Z</time>
      </trkpt>
      <trkpt lat="43.96745" lon="2.99791">
        <ele>817</ele>
        <time>2025-09-25T09:19:47.000Z</time>
      </trkpt>
      <trkpt lat="43.9674" lon="2.99815">
        <ele>814</ele>
        <time>2025-09-25T09:20:07.000Z</time>
      </trkpt>
      <trkpt lat="43.96734" lon="2.99841">
        <ele>812</ele>
        <time>2025-09-25T09:20:24.000Z</time>
      </trkpt>
      <trkpt lat="43.96728" lon="2.99865">
        <ele>810</ele>
        <time>2025-09-25T09:20:40.000Z</time>
      </trkpt>
      <trkpt lat="43.96722" lon="2.99888">
        <ele>808</ele>
        <time>2025-09-25T09:20:55.000Z</time>
      </trkpt>
      <trkpt lat="43.96713" lon="2.9991">
        <ele>807</ele>
        <time>2025-09-25T09:21:17.000Z</time>
      </trkpt>
      <trkpt lat="43.96709" lon="2.99934">
        <ele>806</ele>
        <time>2025-09-25T09:21:32.000Z</time>
      </trkpt>
      <trkpt lat="43.96709" lon="2.99959">
        <ele>805</ele>
        <time>2025-09-25T09:21:48.000Z</time>
      </trkpt>
      <trkpt lat="43.96708" lon="2.99987">
        <ele>803</ele>
        <time>2025-09-25T09:22:03.000Z</time>
      </trkpt>
      <trkpt lat="43.96706" lon="3.00015">
        <ele>801</ele>
        <time>2025-09-25T09:22:18.000Z</time>
      </trkpt>
      <trkpt lat="43.96706" lon="3.00041">
        <ele>798</ele>
        <time>2025-09-25T09:22:32.000Z</time>
      </trkpt>
      <trkpt lat="43.96705" lon="3.00067">
        <ele>794</ele>
        <time>2025-09-25T09:22:50.000Z</time>
      </trkpt>
      <trkpt lat="43.96711" lon="3.00088">
        <ele>790</ele>
        <time>2025-09-25T09:23:20.000Z</time>
      </trkpt>
      <trkpt lat="43.96725" lon="3.00091">
        <ele>784</ele>
        <time>2025-09-25T09:23:41.000Z</time>
      </trkpt>
      <trkpt lat="43.96733" lon="3.00113">
        <ele>780</ele>
        <time>2025-09-25T09:25:00.000Z</time>
      </trkpt>
      <trkpt lat="43.96733" lon="3.00137">
        <ele>776</ele>
        <time>2025-09-25T09:25:32.000Z</time>
      </trkpt>
      <trkpt lat="43.9672" lon="3.00149">
        <ele>772</ele>
        <time>2025-09-25T09:26:00.000Z</time>
      </trkpt>
      <trkpt lat="43.96712" lon="3.0017">
        <ele>768</ele>
        <time>2025-09-25T09:26:21.000Z</time>
      </trkpt>
      <trkpt lat="43.96708" lon="3.00193">
        <ele>764</ele>
        <time>2025-09-25T09:26:47.000Z</time>
      </trkpt>
      <trkpt lat="43.96697" lon="3.00214">
        <ele>760</ele>
        <time>2025-09-25T09:27:03.000Z</time>
      </trkpt>
      <trkpt lat="43.96691" lon="3.00237">
        <ele>756</ele>
        <time>2025-09-25T09:27:22.000Z</time>
      </trkpt>
      <trkpt lat="43.96692" lon="3.00263">
        <ele>752</ele>
        <time>2025-09-25T09:27:47.000Z</time>
      </trkpt>
      <trkpt lat="43.96695" lon="3.00285">
        <ele>747</ele>
        <time>2025-09-25T09:28:06.000Z</time>
      </trkpt>
      <trkpt lat="43.96709" lon="3.00298">
        <ele>743</ele>
        <time>2025-09-25T09:28:24.000Z</time>
      </trkpt>
      <trkpt lat="43.96722" lon="3.00316">
        <ele>739</ele>
        <time>2025-09-25T09:28:46.000Z</time>
      </trkpt>
      <trkpt lat="43.96736" lon="3.00332">
        <ele>734</ele>
        <time>2025-09-25T09:29:03.000Z</time>
      </trkpt>
      <trkpt lat="43.96745" lon="3.00348">
        <ele>730</ele>
        <time>2025-09-25T09:29:20.000Z</time>
      </trkpt>
      <trkpt lat="43.96734" lon="3.00361">
        <ele>726</ele>
        <time>2025-09-25T09:34:45.000Z</time>
      </trkpt>
      <trkpt lat="43.96732" lon="3.00383">
        <ele>721</ele>
        <time>2025-09-25T09:35:04.000Z</time>
      </trkpt>
      <trkpt lat="43.9674" lon="3.00407">
        <ele>718</ele>
        <time>2025-09-25T09:35:31.000Z</time>
      </trkpt>
      <trkpt lat="43.96751" lon="3.00428">
        <ele>714</ele>
        <time>2025-09-25T09:35:51.000Z</time>
      </trkpt>
      <trkpt lat="43.9676" lon="3.0045">
        <ele>711</ele>
        <time>2025-09-25T09:36:09.000Z</time>
      </trkpt>
      <trkpt lat="43.9677" lon="3.00471">
        <ele>708</ele>
        <time>2025-09-25T09:36:29.000Z</time>
      </trkpt>
      <trkpt lat="43.96773" lon="3.00496">
        <ele>705</ele>
        <time>2025-09-25T09:36:53.000Z</time>
      </trkpt>
      <trkpt lat="43.96775" lon="3.00521">
        <ele>703</ele>
        <time>2025-09-25T09:37:11.000Z</time>
      </trkpt>
      <trkpt lat="43.96778" lon="3.00547">
        <ele>700</ele>
        <time>2025-09-25T09:37:27.000Z</time>
      </trkpt>
      <trkpt lat="43.96784" lon="3.00572">
        <ele>697</ele>
        <time>2025-09-25T09:37:48.000Z</time>
      </trkpt>
      <trkpt lat="43.96794" lon="3.00594">
        <ele>694</ele>
        <time>2025-09-25T09:38:07.000Z</time>
      </trkpt>
      <trkpt lat="43.96805" lon="3.00617">
        <ele>691</ele>
        <time>2025-09-25T09:38:24.000Z</time>
      </trkpt>
      <trkpt lat="43.96817" lon="3.00639">
        <ele>688</ele>
        <time>2025-09-25T09:38:43.000Z</time>
      </trkpt>
      <trkpt lat="43.96829" lon="3.00658">
        <ele>686</ele>
        <time>2025-09-25T09:39:02.000Z</time>
      </trkpt>
      <trkpt lat="43.96841" lon="3.00677">
        <ele>683</ele>
        <time>2025-09-25T09:39:19.000Z</time>
      </trkpt>
      <trkpt lat="43.96854" lon="3.00696">
        <ele>680</ele>
        <time>2025-09-25T09:39:38.000Z</time>
      </trkpt>
      <trkpt lat="43.96862" lon="3.00719">
        <ele>676</ele>
        <time>2025-09-25T09:39:55.000Z</time>
      </trkpt>
      <trkpt lat="43.96871" lon="3.00742">
        <ele>672</ele>
        <time>2025-09-25T09:40:15.000Z</time>
      </trkpt>
      <trkpt lat="43.9688" lon="3.00765">
        <ele>668</ele>
        <time>2025-09-25T09:40:33.000Z</time>
      </trkpt>
      <trkpt lat="43.96886" lon="3.00788">
        <ele>666</ele>
        <time>2025-09-25T09:40:53.000Z</time>
      </trkpt>
      <trkpt lat="43.96893" lon="3.00813">
        <ele>664</ele>
        <time>2025-09-25T09:41:10.000Z</time>
      </trkpt>
      <trkpt lat="43.96896" lon="3.0084">
        <ele>661</ele>
        <time>2025-09-25T09:41:39.000Z</time>
      </trkpt>
      <trkpt lat="43.96898" lon="3.00866">
        <ele>658</ele>
        <time>2025-09-25T09:41:59.000Z</time>
      </trkpt>
      <trkpt lat="43.969" lon="3.00892">
        <ele>654</ele>
        <time>2025-09-25T09:42:25.000Z</time>
      </trkpt>
      <trkpt lat="43.96908" lon="3.00914">
        <ele>649</ele>
        <time>2025-09-25T09:42:43.000Z</time>
      </trkpt>
      <trkpt lat="43.96924" lon="3.00929">
        <ele>644</ele>
        <time>2025-09-25T09:43:10.000Z</time>
      </trkpt>
      <trkpt lat="43.96935" lon="3.00944">
        <ele>639</ele>
        <time>2025-09-25T09:43:49.000Z</time>
      </trkpt>
      <trkpt lat="43.96924" lon="3.00957">
        <ele>633</ele>
        <time>2025-09-25T09:44:22.000Z</time>
      </trkpt>
      <trkpt lat="43.96924" lon="3.0098">
        <ele>627</ele>
        <time>2025-09-25T09:44:51.000Z</time>
      </trkpt>
      <trkpt lat="43.96931" lon="3.01002">
        <ele>623</ele>
        <time>2025-09-25T09:45:17.000Z</time>
      </trkpt>
      <trkpt lat="43.96928" lon="3.01023">
        <ele>618</ele>
        <time>2025-09-25T09:45:40.000Z</time>
      </trkpt>
      <trkpt lat="43.96936" lon="3.01042">
        <ele>614</ele>
        <time>2025-09-25T09:46:33.000Z</time>
      </trkpt>
      <trkpt lat="43.96933" lon="3.01067">
        <ele>607</ele>
        <time>2025-09-25T09:46:48.000Z</time>
      </trkpt>
      <trkpt lat="43.96935" lon="3.01093">
        <ele>600</ele>
        <time>2025-09-25T09:47:09.000Z</time>
      </trkpt>
      <trkpt lat="43.9694" lon="3.01118">
        <ele>593</ele>
        <time>2025-09-25T09:47:32.000Z</time>
      </trkpt>
      <trkpt lat="43.96949" lon="3.01139">
        <ele>586</ele>
        <time>2025-09-25T09:48:06.000Z</time>
      </trkpt>
      <trkpt lat="43.96958" lon="3.01161">
        <ele>580</ele>
        <time>2025-09-25T09:49:37.000Z</time>
      </trkpt>
      <trkpt lat="43.96954" lon="3.01183">
        <ele>575</ele>
        <time>2025-09-25T09:54:42.000Z</time>
      </trkpt>
      <trkpt lat="43.96946" lon="3.01205">
        <ele>570</ele>
        <time>2025-09-25T09:55:05.000Z</time>
      </trkpt>
      <trkpt lat="43.96944" lon="3.01231">
        <ele>565</ele>
        <time>2025-09-25T09:55:23.000Z</time>
      </trkpt>
      <trkpt lat="43.96954" lon="3.01253">
        <ele>561</ele>
        <time>2025-09-25T09:55:41.000Z</time>
      </trkpt>
      <trkpt lat="43.96964" lon="3.01274">
        <ele>557</ele>
        <time>2025-09-25T09:56:05.000Z</time>
      </trkpt>
      <trkpt lat="43.96971" lon="3.01297">
        <ele>553</ele>
        <time>2025-09-25T09:56:26.000Z</time>
      </trkpt>
      <trkpt lat="43.9698" lon="3.0132">
        <ele>551</ele>
        <time>2025-09-25T09:56:43.000Z</time>
      </trkpt>
      <trkpt lat="43.96989" lon="3.01342">
        <ele>549</ele>
        <time>2025-09-25T09:56:59.000Z</time>
      </trkpt>
      <trkpt lat="43.96998" lon="3.01365">
        <ele>547</ele>
        <time>2025-09-25T09:57:17.000Z</time>
      </trkpt>
      <trkpt lat="43.97007" lon="3.0139">
        <ele>546</ele>
        <time>2025-09-25T09:57:35.000Z</time>
      </trkpt>
      <trkpt lat="43.97016" lon="3.01413">
        <ele>544</ele>
        <time>2025-09-25T09:57:52.000Z</time>
      </trkpt>
      <trkpt lat="43.97025" lon="3.01436">
        <ele>544</ele>
        <time>2025-09-25T09:58:09.000Z</time>
      </trkpt>
      <trkpt lat="43.97032" lon="3.01459">
        <ele>543</ele>
        <time>2025-09-25T09:58:25.000Z</time>
      </trkpt>
      <trkpt lat="43.97027" lon="3.01483">
        <ele>543</ele>
        <time>2025-09-25T09:58:43.000Z</time>
      </trkpt>
      <trkpt lat="43.97019" lon="3.01506">
        <ele>543</ele>
        <time>2025-09-25T09:58:59.000Z</time>
      </trkpt>
      <trkpt lat="43.9702" lon="3.01525">
        <ele>543</ele>
        <time>2025-09-25T10:00:06.000Z</time>
      </trkpt>
      <trkpt lat="43.97032" lon="3.01513">
        <ele>543</ele>
        <time>2025-09-25T10:00:26.000Z</time>
      </trkpt>
      <trkpt lat="43.97046" lon="3.01498">
        <ele>544</ele>
        <time>2025-09-25T10:00:44.000Z</time>
      </trkpt>
      <trkpt lat="43.9706" lon="3.01481">
        <ele>544</ele>
        <time>2025-09-25T10:01:04.000Z</time>
      </trkpt>
      <trkpt lat="43.97074" lon="3.01464">
        <ele>545</ele>
        <time>2025-09-25T10:01:20.000Z</time>
      </trkpt>
      <trkpt lat="43.97089" lon="3.01448">
        <ele>545</ele>
        <time>2025-09-25T10:01:39.000Z</time>
      </trkpt>
      <trkpt lat="43.97103" lon="3.01429">
        <ele>546</ele>
        <time>2025-09-25T10:01:53.000Z</time>
      </trkpt>
      <trkpt lat="43.97116" lon="3.01412">
        <ele>546</ele>
        <time>2025-09-25T10:02:08.000Z</time>
      </trkpt>
      <trkpt lat="43.97131" lon="3.01393">
        <ele>545</ele>
        <time>2025-09-25T10:02:25.000Z</time>
      </trkpt>
      <trkpt lat="43.97147" lon="3.01377">
        <ele>544</ele>
        <time>2025-09-25T10:02:41.000Z</time>
      </trkpt>
      <trkpt lat="43.97165" lon="3.01365">
        <ele>543</ele>
        <time>2025-09-25T10:02:56.000Z</time>
      </trkpt>
      <trkpt lat="43.97183" lon="3.01357">
        <ele>542</ele>
        <time>2025-09-25T10:03:12.000Z</time>
      </trkpt>
      <trkpt lat="43.97201" lon="3.01345">
        <ele>542</ele>
        <time>2025-09-25T10:03:29.000Z</time>
      </trkpt>
      <trkpt lat="43.97218" lon="3.01335">
        <ele>541</ele>
        <time>2025-09-25T10:03:44.000Z</time>
      </trkpt>
      <trkpt lat="43.97235" lon="3.01321">
        <ele>542</ele>
        <time>2025-09-25T10:04:01.000Z</time>
      </trkpt>
      <trkpt lat="43.97251" lon="3.01306">
        <ele>543</ele>
        <time>2025-09-25T10:04:18.000Z</time>
      </trkpt>
      <trkpt lat="43.97267" lon="3.01297">
        <ele>544</ele>
        <time>2025-09-25T10:04:32.000Z</time>
      </trkpt>
      <trkpt lat="43.97285" lon="3.013">
        <ele>545</ele>
        <time>2025-09-25T10:04:52.000Z</time>
      </trkpt>
      <trkpt lat="43.97303" lon="3.01297">
        <ele>545</ele>
        <time>2025-09-25T10:05:44.000Z</time>
      </trkpt>
      <trkpt lat="43.97318" lon="3.01284">
        <ele>546</ele>
        <time>2025-09-25T10:06:02.000Z</time>
      </trkpt>
      <trkpt lat="43.97332" lon="3.01268">
        <ele>547</ele>
        <time>2025-09-25T10:06:22.000Z</time>
      </trkpt>
      <trkpt lat="43.97348" lon="3.01254">
        <ele>547</ele>
        <time>2025-09-25T10:06:39.000Z</time>
      </trkpt>
      <trkpt lat="43.97365" lon="3.01243">
        <ele>548</ele>
        <time>2025-09-25T10:06:53.000Z</time>
      </trkpt>
      <trkpt lat="43.97382" lon="3.0123">
        <ele>549</ele>
        <time>2025-09-25T10:07:11.000Z</time>
      </trkpt>
      <trkpt lat="43.97399" lon="3.01218">
        <ele>550</ele>
        <time>2025-09-25T10:07:26.000Z</time>
      </trkpt>
      <trkpt lat="43.97415" lon="3.01207">
        <ele>549</ele>
        <time>2025-09-25T10:07:43.000Z</time>
      </trkpt>
      <trkpt lat="43.97431" lon="3.01193">
        <ele>550</ele>
        <time>2025-09-25T10:08:00.000Z</time>
      </trkpt>
      <trkpt lat="43.97447" lon="3.01181">
        <ele>549</ele>
        <time>2025-09-25T10:08:14.000Z</time>
      </trkpt>
      <trkpt lat="43.97464" lon="3.01173">
        <ele>549</ele>
        <time>2025-09-25T10:08:29.000Z</time>
      </trkpt>
      <trkpt lat="43.97482" lon="3.01162">
        <ele>550</ele>
        <time>2025-09-25T10:08:52.000Z</time>
      </trkpt>
      <trkpt lat="43.97499" lon="3.01157">
        <ele>551</ele>
        <time>2025-09-25T10:09:07.000Z</time>
      </trkpt>
      <trkpt lat="43.97518" lon="3.01153">
        <ele>552</ele>
        <time>2025-09-25T10:09:25.000Z</time>
      </trkpt>
      <trkpt lat="43.97536" lon="3.01148">
        <ele>553</ele>
        <time>2025-09-25T10:09:42.000Z</time>
      </trkpt>
      <trkpt lat="43.97547" lon="3.01129">
        <ele>554</ele>
        <time>2025-09-25T10:09:56.000Z</time>
      </trkpt>
      <trkpt lat="43.97562" lon="3.01117">
        <ele>555</ele>
        <time>2025-09-25T10:10:14.000Z</time>
      </trkpt>
      <trkpt lat="43.97581" lon="3.01112">
        <ele>555</ele>
        <time>2025-09-25T10:10:34.000Z</time>
      </trkpt>
      <trkpt lat="43.97599" lon="3.01108">
        <ele>555</ele>
        <time>2025-09-25T10:10:54.000Z</time>
      </trkpt>
      <trkpt lat="43.97617" lon="3.011">
        <ele>553</ele>
        <time>2025-09-25T10:11:12.000Z</time>
      </trkpt>
      <trkpt lat="43.97635" lon="3.01094">
        <ele>553</ele>
        <time>2025-09-25T10:11:28.000Z</time>
      </trkpt>
      <trkpt lat="43.97653" lon="3.01096">
        <ele>553</ele>
        <time>2025-09-25T10:11:44.000Z</time>
      </trkpt>
      <trkpt lat="43.97673" lon="3.01097">
        <ele>554</ele>
        <time>2025-09-25T10:12:01.000Z</time>
      </trkpt>
      <trkpt lat="43.97692" lon="3.01096">
        <ele>555</ele>
        <time>2025-09-25T10:12:19.000Z</time>
      </trkpt>
      <trkpt lat="43.97711" lon="3.01092">
        <ele>556</ele>
        <time>2025-09-25T10:12:36.000Z</time>
      </trkpt>
      <trkpt lat="43.9773" lon="3.01092">
        <ele>556</ele>
        <time>2025-09-25T10:12:54.000Z</time>
      </trkpt>
      <trkpt lat="43.97748" lon="3.01098">
        <ele>558</ele>
        <time>2025-09-25T10:13:14.000Z</time>
      </trkpt>
      <trkpt lat="43.97767" lon="3.01101">
        <ele>561</ele>
        <time>2025-09-25T10:14:25.000Z</time>
      </trkpt>
      <trkpt lat="43.97785" lon="3.01102">
        <ele>564</ele>
        <time>2025-09-25T10:14:46.000Z</time>
      </trkpt>
      <trkpt lat="43.97803" lon="3.0111">
        <ele>567</ele>
        <time>2025-09-25T10:15:07.000Z</time>
      </trkpt>
      <trkpt lat="43.97821" lon="3.0112">
        <ele>569</ele>
        <time>2025-09-25T10:15:34.000Z</time>
      </trkpt>
      <trkpt lat="43.97838" lon="3.01129">
        <ele>572</ele>
        <time>2025-09-25T10:15:55.000Z</time>
      </trkpt>
      <trkpt lat="43.97856" lon="3.01137">
        <ele>574</ele>
        <time>2025-09-25T10:16:16.000Z</time>
      </trkpt>
      <trkpt lat="43.97873" lon="3.01143">
        <ele>577</ele>
        <time>2025-09-25T10:16:37.000Z</time>
      </trkpt>
      <trkpt lat="43.97891" lon="3.01153">
        <ele>579</ele>
        <time>2025-09-25T10:16:59.000Z</time>
      </trkpt>
      <trkpt lat="43.97907" lon="3.01167">
        <ele>581</ele>
        <time>2025-09-25T10:17:21.000Z</time>
      </trkpt>
      <trkpt lat="43.97919" lon="3.01188">
        <ele>584</ele>
        <time>2025-09-25T10:17:44.000Z</time>
      </trkpt>
      <trkpt lat="43.97932" lon="3.01207">
        <ele>587</ele>
        <time>2025-09-25T10:18:06.000Z</time>
      </trkpt>
      <trkpt lat="43.97942" lon="3.01227">
        <ele>591</ele>
        <time>2025-09-25T10:18:30.000Z</time>
      </trkpt>
      <trkpt lat="43.97947" lon="3.01251">
        <ele>594</ele>
        <time>2025-09-25T10:19:00.000Z</time>
      </trkpt>
      <trkpt lat="43.9796" lon="3.01267">
        <ele>596</ele>
        <time>2025-09-25T10:20:54.000Z</time>
      </trkpt>
      <trkpt lat="43.97977" lon="3.0126">
        <ele>599</ele>
        <time>2025-09-25T10:21:14.000Z</time>
      </trkpt>
      <trkpt lat="43.97988" lon="3.01242">
        <ele>601</ele>
        <time>2025-09-25T10:21:37.000Z</time>
      </trkpt>
      <trkpt lat="43.97984" lon="3.01218">
        <ele>603</ele>
        <time>2025-09-25T10:21:56.000Z</time>
      </trkpt>
      <trkpt lat="43.97979" lon="3.01195">
        <ele>606</ele>
        <time>2025-09-25T10:22:12.000Z</time>
      </trkpt>
      <trkpt lat="43.97986" lon="3.01174">
        <ele>609</ele>
        <time>2025-09-25T10:22:32.000Z</time>
      </trkpt>
      <trkpt lat="43.97983" lon="3.01149">
        <ele>612</ele>
        <time>2025-09-25T10:22:51.000Z</time>
      </trkpt>
      <trkpt lat="43.97988" lon="3.01125">
        <ele>615</ele>
        <time>2025-09-25T10:23:14.000Z</time>
      </trkpt>
      <trkpt lat="43.97996" lon="3.01102">
        <ele>618</ele>
        <time>2025-09-25T10:23:43.000Z</time>
      </trkpt>
      <trkpt lat="43.98002" lon="3.01077">
        <ele>620</ele>
        <time>2025-09-25T10:24:13.000Z</time>
      </trkpt>
      <trkpt lat="43.98001" lon="3.01053">
        <ele>622</ele>
        <time>2025-09-25T10:24:34.000Z</time>
      </trkpt>
      <trkpt lat="43.97996" lon="3.01029">
        <ele>624</ele>
        <time>2025-09-25T10:24:54.000Z</time>
      </trkpt>
      <trkpt lat="43.97986" lon="3.01008">
        <ele>625</ele>
        <time>2025-09-25T10:25:11.000Z</time>
      </trkpt>
      <trkpt lat="43.97975" lon="3.00986">
        <ele>625</ele>
        <time>2025-09-25T10:25:29.000Z</time>
      </trkpt>
      <trkpt lat="43.97963" lon="3.00968">
        <ele>625</ele>
        <time>2025-09-25T10:25:46.000Z</time>
      </trkpt>
      <trkpt lat="43.97951" lon="3.00949">
        <ele>624</ele>
        <time>2025-09-25T10:26:05.000Z</time>
      </trkpt>
      <trkpt lat="43.97941" lon="3.00928">
        <ele>625</ele>
        <time>2025-09-25T10:26:22.000Z</time>
      </trkpt>
      <trkpt lat="43.97931" lon="3.00909">
        <ele>625</ele>
        <time>2025-09-25T10:48:22.000Z</time>
      </trkpt>
      <trkpt lat="43.97933" lon="3.00892">
        <ele>625</ele>
        <time>2025-09-25T10:48:38.000Z</time>
      </trkpt>
      <trkpt lat="43.97936" lon="3.00906">
        <ele>625</ele>
        <time>2025-09-25T10:54:17.000Z</time>
      </trkpt>
      <trkpt lat="43.97937" lon="3.00886">
        <ele>624</ele>
        <time>2025-09-25T11:06:45.000Z</time>
      </trkpt>
      <trkpt lat="43.97939" lon="3.0086">
        <ele>623</ele>
        <time>2025-09-25T11:07:14.000Z</time>
      </trkpt>
      <trkpt lat="43.97945" lon="3.00837">
        <ele>621</ele>
        <time>2025-09-25T11:07:35.000Z</time>
      </trkpt>
      <trkpt lat="43.97944" lon="3.00812">
        <ele>618</ele>
        <time>2025-09-25T11:07:57.000Z</time>
      </trkpt>
      <trkpt lat="43.97934" lon="3.0079">
        <ele>615</ele>
        <time>2025-09-25T11:08:25.000Z</time>
      </trkpt>
      <trkpt lat="43.97933" lon="3.00766">
        <ele>614</ele>
        <time>2025-09-25T11:08:49.000Z</time>
      </trkpt>
      <trkpt lat="43.9793" lon="3.00741">
        <ele>611</ele>
        <time>2025-09-25T11:09:08.000Z</time>
      </trkpt>
      <trkpt lat="43.97924" lon="3.00719">
        <ele>608</ele>
        <time>2025-09-25T11:09:26.000Z</time>
      </trkpt>
      <trkpt lat="43.97925" lon="3.00696">
        <ele>606</ele>
        <time>2025-09-25T11:09:44.000Z</time>
      </trkpt>
      <trkpt lat="43.97936" lon="3.00679">
        <ele>605</ele>
        <time>2025-09-25T11:10:06.000Z</time>
      </trkpt>
      <trkpt lat="43.97937" lon="3.00654">
        <ele>604</ele>
        <time>2025-09-25T11:10:23.000Z</time>
      </trkpt>
      <trkpt lat="43.97938" lon="3.00628">
        <ele>603</ele>
        <time>2025-09-25T11:10:41.000Z</time>
      </trkpt>
      <trkpt lat="43.97939" lon="3.00602">
        <ele>601</ele>
        <time>2025-09-25T11:11:00.000Z</time>
      </trkpt>
      <trkpt lat="43.9794" lon="3.00575">
        <ele>599</ele>
        <time>2025-09-25T11:11:24.000Z</time>
      </trkpt>
      <trkpt lat="43.97941" lon="3.0055">
        <ele>597</ele>
        <time>2025-09-25T11:11:56.000Z</time>
      </trkpt>
      <trkpt lat="43.97945" lon="3.00524">
        <ele>594</ele>
        <time>2025-09-25T11:12:14.000Z</time>
      </trkpt>
      <trkpt lat="43.97949" lon="3.005">
        <ele>591</ele>
        <time>2025-09-25T11:12:33.000Z</time>
      </trkpt>
      <trkpt lat="43.97957" lon="3.00478">
        <ele>587</ele>
        <time>2025-09-25T11:12:50.000Z</time>
      </trkpt>
      <trkpt lat="43.97963" lon="3.00454">
        <ele>583</ele>
        <time>2025-09-25T11:13:12.000Z</time>
      </trkpt>
      <trkpt lat="43.97961" lon="3.00428">
        <ele>579</ele>
        <time>2025-09-25T11:13:36.000Z</time>
      </trkpt>
      <trkpt lat="43.9796" lon="3.00403">
        <ele>575</ele>
        <time>2025-09-25T11:14:10.000Z</time>
      </trkpt>
      <trkpt lat="43.9795" lon="3.00383">
        <ele>572</ele>
        <time>2025-09-25T11:14:29.000Z</time>
      </trkpt>
      <trkpt lat="43.97937" lon="3.00366">
        <ele>568</ele>
        <time>2025-09-25T11:14:50.000Z</time>
      </trkpt>
      <trkpt lat="43.97932" lon="3.00342">
        <ele>565</ele>
        <time>2025-09-25T11:15:12.000Z</time>
      </trkpt>
      <trkpt lat="43.97927" lon="3.00317">
        <ele>563</ele>
        <time>2025-09-25T11:15:30.000Z</time>
      </trkpt>
      <trkpt lat="43.97918" lon="3.00295">
        <ele>562</ele>
        <time>2025-09-25T11:15:50.000Z</time>
      </trkpt>
      <trkpt lat="43.97911" lon="3.00272">
        <ele>561</ele>
        <time>2025-09-25T11:16:09.000Z</time>
      </trkpt>
      <trkpt lat="43.97904" lon="3.00248">
        <ele>560</ele>
        <time>2025-09-25T11:16:28.000Z</time>
      </trkpt>
      <trkpt lat="43.97898" lon="3.00225">
        <ele>559</ele>
        <time>2025-09-25T11:17:22.000Z</time>
      </trkpt>
      <trkpt lat="43.97898" lon="3.00199">
        <ele>558</ele>
        <time>2025-09-25T11:17:39.000Z</time>
      </trkpt>
      <trkpt lat="43.97906" lon="3.00176">
        <ele>559</ele>
        <time>2025-09-25T11:18:01.000Z</time>
      </trkpt>
      <trkpt lat="43.97917" lon="3.00154">
        <ele>559</ele>
        <time>2025-09-25T11:18:19.000Z</time>
      </trkpt>
      <trkpt lat="43.97924" lon="3.00131">
        <ele>560</ele>
        <time>2025-09-25T11:18:37.000Z</time>
      </trkpt>
      <trkpt lat="43.97934" lon="3.00111">
        <ele>561</ele>
        <time>2025-09-25T11:22:03.000Z</time>
      </trkpt>
      <trkpt lat="43.97947" lon="3.00092">
        <ele>561</ele>
        <time>2025-09-25T11:22:26.000Z</time>
      </trkpt>
      <trkpt lat="43.97956" lon="3.00069">
        <ele>562</ele>
        <time>2025-09-25T11:22:46.000Z</time>
      </trkpt>
      <trkpt lat="43.97967" lon="3.00048">
        <ele>562</ele>
        <time>2025-09-25T11:23:53.000Z</time>
      </trkpt>
      <trkpt lat="43.97977" lon="3.00027">
        <ele>563</ele>
        <time>2025-09-25T11:24:09.000Z</time>
      </trkpt>
      <trkpt lat="43.97987" lon="3.00003">
        <ele>563</ele>
        <time>2025-09-25T11:24:26.000Z</time>
      </trkpt>
      <trkpt lat="43.97997" lon="2.99982">
        <ele>564</ele>
        <time>2025-09-25T11:24:43.000Z</time>
      </trkpt>
      <trkpt lat="43.98006" lon="2.99961">
        <ele>564</ele>
        <time>2025-09-25T11:24:59.000Z</time>
      </trkpt>
      <trkpt lat="43.98019" lon="2.99943">
        <ele>564</ele>
        <time>2025-09-25T11:25:15.000Z</time>
      </trkpt>
      <trkpt lat="43.98029" lon="2.99922">
        <ele>564</ele>
        <time>2025-09-25T11:25:30.000Z</time>
      </trkpt>
      <trkpt lat="43.98042" lon="2.99902">
        <ele>564</ele>
        <time>2025-09-25T11:25:47.000Z</time>
      </trkpt>
      <trkpt lat="43.98051" lon="2.99879">
        <ele>564</ele>
        <time>2025-09-25T11:26:03.000Z</time>
      </trkpt>
      <trkpt lat="43.98056" lon="2.99853">
        <ele>564</ele>
        <time>2025-09-25T11:26:20.000Z</time>
      </trkpt>
      <trkpt lat="43.98062" lon="2.99829">
        <ele>564</ele>
        <time>2025-09-25T11:26:35.000Z</time>
      </trkpt>
      <trkpt lat="43.9807" lon="2.99806">
        <ele>565</ele>
        <time>2025-09-25T11:26:51.000Z</time>
      </trkpt>
      <trkpt lat="43.98081" lon="2.99786">
        <ele>566</ele>
        <time>2025-09-25T11:27:05.000Z</time>
      </trkpt>
      <trkpt lat="43.98092" lon="2.99765">
        <ele>567</ele>
        <time>2025-09-25T11:27:20.000Z</time>
      </trkpt>
      <trkpt lat="43.98102" lon="2.99743">
        <ele>568</ele>
        <time>2025-09-25T11:27:35.000Z</time>
      </trkpt>
      <trkpt lat="43.98112" lon="2.99722">
        <ele>568</ele>
        <time>2025-09-25T11:27:52.000Z</time>
      </trkpt>
      <trkpt lat="43.98123" lon="2.99701">
        <ele>569</ele>
        <time>2025-09-25T11:28:09.000Z</time>
      </trkpt>
      <trkpt lat="43.98136" lon="2.99682">
        <ele>568</ele>
        <time>2025-09-25T11:28:26.000Z</time>
      </trkpt>
      <trkpt lat="43.98149" lon="2.99662">
        <ele>568</ele>
        <time>2025-09-25T11:28:42.000Z</time>
      </trkpt>
      <trkpt lat="43.98158" lon="2.99639">
        <ele>568</ele>
        <time>2025-09-25T11:29:15.000Z</time>
      </trkpt>
      <trkpt lat="43.98168" lon="2.99617">
        <ele>567</ele>
        <time>2025-09-25T11:29:31.000Z</time>
      </trkpt>
      <trkpt lat="43.98177" lon="2.99592">
        <ele>568</ele>
        <time>2025-09-25T11:29:47.000Z</time>
      </trkpt>
      <trkpt lat="43.98185" lon="2.99567">
        <ele>568</ele>
        <time>2025-09-25T11:30:03.000Z</time>
      </trkpt>
      <trkpt lat="43.98189" lon="2.99543">
        <ele>568</ele>
        <time>2025-09-25T11:30:20.000Z</time>
      </trkpt>
      <trkpt lat="43.98189" lon="2.99517">
        <ele>569</ele>
        <time>2025-09-25T11:30:34.000Z</time>
      </trkpt>
      <trkpt lat="43.98188" lon="2.99491">
        <ele>569</ele>
        <time>2025-09-25T11:30:49.000Z</time>
      </trkpt>
      <trkpt lat="43.98193" lon="2.99466">
        <ele>569</ele>
        <time>2025-09-25T11:31:04.000Z</time>
      </trkpt>
      <trkpt lat="43.98204" lon="2.99445">
        <ele>570</ele>
        <time>2025-09-25T11:31:20.000Z</time>
      </trkpt>
      <trkpt lat="43.98219" lon="2.9943">
        <ele>571</ele>
        <time>2025-09-25T11:31:36.000Z</time>
      </trkpt>
      <trkpt lat="43.98238" lon="2.99427">
        <ele>572</ele>
        <time>2025-09-25T11:31:53.000Z</time>
      </trkpt>
      <trkpt lat="43.98255" lon="2.99426">
        <ele>572</ele>
        <time>2025-09-25T11:32:08.000Z</time>
      </trkpt>
      <trkpt lat="43.98273" lon="2.99418">
        <ele>573</ele>
        <time>2025-09-25T11:32:24.000Z</time>
      </trkpt>
      <trkpt lat="43.98288" lon="2.99405">
        <ele>573</ele>
        <time>2025-09-25T11:32:39.000Z</time>
      </trkpt>
      <trkpt lat="43.98303" lon="2.99389">
        <ele>573</ele>
        <time>2025-09-25T11:32:54.000Z</time>
      </trkpt>
      <trkpt lat="43.98311" lon="2.99365">
        <ele>573</ele>
        <time>2025-09-25T11:33:08.000Z</time>
      </trkpt>
      <trkpt lat="43.98321" lon="2.99342">
        <ele>572</ele>
        <time>2025-09-25T11:33:24.000Z</time>
      </trkpt>
      <trkpt lat="43.98335" lon="2.99321">
        <ele>571</ele>
        <time>2025-09-25T11:33:42.000Z</time>
      </trkpt>
      <trkpt lat="43.98349" lon="2.99303">
        <ele>572</ele>
        <time>2025-09-25T11:33:59.000Z</time>
      </trkpt>
      <trkpt lat="43.98361" lon="2.99282">
        <ele>572</ele>
        <time>2025-09-25T11:34:18.000Z</time>
      </trkpt>
      <trkpt lat="43.98371" lon="2.99259">
        <ele>572</ele>
        <time>2025-09-25T11:34:38.000Z</time>
      </trkpt>
      <trkpt lat="43.98371" lon="2.99235">
        <ele>572</ele>
        <time>2025-09-25T11:34:56.000Z</time>
      </trkpt>
      <trkpt lat="43.98372" lon="2.99209">
        <ele>572</ele>
        <time>2025-09-25T11:35:11.000Z</time>
      </trkpt>
      <trkpt lat="43.98372" lon="2.99184">
        <ele>572</ele>
        <time>2025-09-25T11:35:27.000Z</time>
      </trkpt>
      <trkpt lat="43.98375" lon="2.99158">
        <ele>573</ele>
        <time>2025-09-25T11:35:45.000Z</time>
      </trkpt>
      <trkpt lat="43.98383" lon="2.99134">
        <ele>574</ele>
        <time>2025-09-25T11:36:02.000Z</time>
      </trkpt>
      <trkpt lat="43.98391" lon="2.99113">
        <ele>575</ele>
        <time>2025-09-25T11:36:19.000Z</time>
      </trkpt>
      <trkpt lat="43.98405" lon="2.99099">
        <ele>575</ele>
        <time>2025-09-25T11:36:38.000Z</time>
      </trkpt>
      <trkpt lat="43.98417" lon="2.99081">
        <ele>576</ele>
        <time>2025-09-25T11:36:56.000Z</time>
      </trkpt>
      <trkpt lat="43.98424" lon="2.99056">
        <ele>576</ele>
        <time>2025-09-25T11:37:13.000Z</time>
      </trkpt>
      <trkpt lat="43.98435" lon="2.99035">
        <ele>575</ele>
        <time>2025-09-25T11:37:29.000Z</time>
      </trkpt>
      <trkpt lat="43.9845" lon="2.99018">
        <ele>575</ele>
        <time>2025-09-25T11:37:48.000Z</time>
      </trkpt>
      <trkpt lat="43.98465" lon="2.99005">
        <ele>574</ele>
        <time>2025-09-25T11:38:04.000Z</time>
      </trkpt>
      <trkpt lat="43.98475" lon="2.98983">
        <ele>574</ele>
        <time>2025-09-25T11:38:20.000Z</time>
      </trkpt>
      <trkpt lat="43.98483" lon="2.98961">
        <ele>575</ele>
        <time>2025-09-25T11:38:35.000Z</time>
      </trkpt>
      <trkpt lat="43.98491" lon="2.9894">
        <ele>576</ele>
        <time>2025-09-25T11:38:48.000Z</time>
      </trkpt>
      <trkpt lat="43.98506" lon="2.98926">
        <ele>576</ele>
        <time>2025-09-25T11:39:06.000Z</time>
      </trkpt>
      <trkpt lat="43.98524" lon="2.9892">
        <ele>575</ele>
        <time>2025-09-25T11:39:23.000Z</time>
      </trkpt>
      <trkpt lat="43.98542" lon="2.98912">
        <ele>573</ele>
        <time>2025-09-25T11:39:39.000Z</time>
      </trkpt>
      <trkpt lat="43.98556" lon="2.98896">
        <ele>571</ele>
        <time>2025-09-25T11:39:54.000Z</time>
      </trkpt>
      <trkpt lat="43.98569" lon="2.98879">
        <ele>569</ele>
        <time>2025-09-25T11:40:10.000Z</time>
      </trkpt>
      <trkpt lat="43.9858" lon="2.98861">
        <ele>567</ele>
        <time>2025-09-25T11:40:24.000Z</time>
      </trkpt>
      <trkpt lat="43.98597" lon="2.98857">
        <ele>567</ele>
        <time>2025-09-25T11:40:45.000Z</time>
      </trkpt>
      <trkpt lat="43.98616" lon="2.9885">
        <ele>566</ele>
        <time>2025-09-25T11:41:05.000Z</time>
      </trkpt>
      <trkpt lat="43.98631" lon="2.98838">
        <ele>565</ele>
        <time>2025-09-25T11:41:22.000Z</time>
      </trkpt>
      <trkpt lat="43.98648" lon="2.98828">
        <ele>564</ele>
        <time>2025-09-25T11:41:39.000Z</time>
      </trkpt>
      <trkpt lat="43.98665" lon="2.98819">
        <ele>563</ele>
        <time>2025-09-25T11:41:55.000Z</time>
      </trkpt>
      <trkpt lat="43.98681" lon="2.98807">
        <ele>562</ele>
        <time>2025-09-25T11:42:13.000Z</time>
      </trkpt>
      <trkpt lat="43.98696" lon="2.98792">
        <ele>562</ele>
        <time>2025-09-25T11:42:27.000Z</time>
      </trkpt>
      <trkpt lat="43.98711" lon="2.98778">
        <ele>561</ele>
        <time>2025-09-25T11:42:44.000Z</time>
      </trkpt>
      <trkpt lat="43.98723" lon="2.98761">
        <ele>561</ele>
        <time>2025-09-25T11:43:02.000Z</time>
      </trkpt>
      <trkpt lat="43.98724" lon="2.98736">
        <ele>561</ele>
        <time>2025-09-25T11:43:18.000Z</time>
      </trkpt>
      <trkpt lat="43.98723" lon="2.9871">
        <ele>560</ele>
        <time>2025-09-25T11:43:34.000Z</time>
      </trkpt>
      <trkpt lat="43.98716" lon="2.98687">
        <ele>561</ele>
        <time>2025-09-25T11:43:49.000Z</time>
      </trkpt>
      <trkpt lat="43.98719" lon="2.98662">
        <ele>561</ele>
        <time>2025-09-25T11:44:06.000Z</time>
      </trkpt>
      <trkpt lat="43.98726" lon="2.98639">
        <ele>562</ele>
        <time>2025-09-25T11:44:24.000Z</time>
      </trkpt>
      <trkpt lat="43.98735" lon="2.98615">
        <ele>563</ele>
        <time>2025-09-25T11:44:44.000Z</time>
      </trkpt>
      <trkpt lat="43.9874" lon="2.9859">
        <ele>564</ele>
        <time>2025-09-25T11:45:08.000Z</time>
      </trkpt>
      <trkpt lat="43.9875" lon="2.98568">
        <ele>564</ele>
        <time>2025-09-25T11:45:23.000Z</time>
      </trkpt>
      <trkpt lat="43.98762" lon="2.98548">
        <ele>564</ele>
        <time>2025-09-25T11:45:39.000Z</time>
      </trkpt>
      <trkpt lat="43.98775" lon="2.9853">
        <ele>563</ele>
        <time>2025-09-25T11:45:55.000Z</time>
      </trkpt>
      <trkpt lat="43.98787" lon="2.9851">
        <ele>563</ele>
        <time>2025-09-25T11:46:12.000Z</time>
      </trkpt>
      <trkpt lat="43.988" lon="2.9849">
        <ele>563</ele>
        <time>2025-09-25T11:46:29.000Z</time>
      </trkpt>
      <trkpt lat="43.98812" lon="2.98469">
        <ele>563</ele>
        <time>2025-09-25T11:46:47.000Z</time>
      </trkpt>
      <trkpt lat="43.98823" lon="2.98446">
        <ele>564</ele>
        <time>2025-09-25T11:47:04.000Z</time>
      </trkpt>
      <trkpt lat="43.98835" lon="2.98426">
        <ele>565</ele>
        <time>2025-09-25T11:47:21.000Z</time>
      </trkpt>
      <trkpt lat="43.98844" lon="2.98403">
        <ele>566</ele>
        <time>2025-09-25T11:47:38.000Z</time>
      </trkpt>
      <trkpt lat="43.98852" lon="2.9838">
        <ele>567</ele>
        <time>2025-09-25T11:47:55.000Z</time>
      </trkpt>
      <trkpt lat="43.98867" lon="2.98366">
        <ele>568</ele>
        <time>2025-09-25T11:48:12.000Z</time>
      </trkpt>
      <trkpt lat="43.98881" lon="2.9835">
        <ele>568</ele>
        <time>2025-09-25T11:48:32.000Z</time>
      </trkpt>
      <trkpt lat="43.9889" lon="2.98327">
        <ele>568</ele>
        <time>2025-09-25T11:48:50.000Z</time>
      </trkpt>
      <trkpt lat="43.98901" lon="2.98304">
        <ele>568</ele>
        <time>2025-09-25T11:49:08.000Z</time>
      </trkpt>
      <trkpt lat="43.98913" lon="2.98284">
        <ele>568</ele>
        <time>2025-09-25T11:49:35.000Z</time>
      </trkpt>
      <trkpt lat="43.98921" lon="2.98259">
        <ele>568</ele>
        <time>2025-09-25T11:49:48.000Z</time>
      </trkpt>
      <trkpt lat="43.98926" lon="2.98235">
        <ele>567</ele>
        <time>2025-09-25T11:50:02.000Z</time>
      </trkpt>
      <trkpt lat="43.98931" lon="2.9821">
        <ele>566</ele>
        <time>2025-09-25T11:50:17.000Z</time>
      </trkpt>
      <trkpt lat="43.98938" lon="2.98185">
        <ele>566</ele>
        <time>2025-09-25T11:50:33.000Z</time>
      </trkpt>
      <trkpt lat="43.98948" lon="2.98163">
        <ele>565</ele>
        <time>2025-09-25T11:50:49.000Z</time>
      </trkpt>
      <trkpt lat="43.98962" lon="2.98148">
        <ele>564</ele>
        <time>2025-09-25T11:51:03.000Z</time>
      </trkpt>
      <trkpt lat="43.98976" lon="2.9813">
        <ele>562</ele>
        <time>2025-09-25T11:51:21.000Z</time>
      </trkpt>
      <trkpt lat="43.98991" lon="2.9811">
        <ele>560</ele>
        <time>2025-09-25T11:51:48.000Z</time>
      </trkpt>
      <trkpt lat="43.99001" lon="2.98094">
        <ele>558</ele>
        <time>2025-09-25T11:51:54.000Z</time>
      </trkpt>
      <trkpt lat="43.98986" lon="2.9809">
        <ele>556</ele>
        <time>2025-09-25T11:57:45.000Z</time>
      </trkpt>
      <trkpt lat="43.98967" lon="2.98091">
        <ele>554</ele>
        <time>2025-09-25T11:58:04.000Z</time>
      </trkpt>
      <trkpt lat="43.98949" lon="2.98095">
        <ele>552</ele>
        <time>2025-09-25T11:58:22.000Z</time>
      </trkpt>
      <trkpt lat="43.98931" lon="2.98094">
        <ele>551</ele>
        <time>2025-09-25T11:58:36.000Z</time>
      </trkpt>
      <trkpt lat="43.98912" lon="2.98094">
        <ele>549</ele>
        <time>2025-09-25T11:58:51.000Z</time>
      </trkpt>
      <trkpt lat="43.98893" lon="2.981">
        <ele>547</ele>
        <time>2025-09-25T11:59:06.000Z</time>
      </trkpt>
      <trkpt lat="43.98876" lon="2.98109">
        <ele>546</ele>
        <time>2025-09-25T11:59:21.000Z</time>
      </trkpt>
      <trkpt lat="43.98858" lon="2.98118">
        <ele>544</ele>
        <time>2025-09-25T11:59:35.000Z</time>
      </trkpt>
      <trkpt lat="43.98841" lon="2.98125">
        <ele>543</ele>
        <time>2025-09-25T11:59:51.000Z</time>
      </trkpt>
      <trkpt lat="43.98823" lon="2.98133">
        <ele>542</ele>
        <time>2025-09-25T12:00:06.000Z</time>
      </trkpt>
      <trkpt lat="43.98805" lon="2.98144">
        <ele>541</ele>
        <time>2025-09-25T12:00:23.000Z</time>
      </trkpt>
      <trkpt lat="43.98787" lon="2.98157">
        <ele>539</ele>
        <time>2025-09-25T12:00:41.000Z</time>
      </trkpt>
      <trkpt lat="43.98771" lon="2.98169">
        <ele>537</ele>
        <time>2025-09-25T12:00:57.000Z</time>
      </trkpt>
      <trkpt lat="43.98756" lon="2.98185">
        <ele>534</ele>
        <time>2025-09-25T12:01:14.000Z</time>
      </trkpt>
      <trkpt lat="43.98741" lon="2.982">
        <ele>531</ele>
        <time>2025-09-25T12:01:32.000Z</time>
      </trkpt>
      <trkpt lat="43.98726" lon="2.98212">
        <ele>528</ele>
        <time>2025-09-25T12:01:51.000Z</time>
      </trkpt>
      <trkpt lat="43.98709" lon="2.98217">
        <ele>525</ele>
        <time>2025-09-25T12:02:08.000Z</time>
      </trkpt>
      <trkpt lat="43.9869" lon="2.98222">
        <ele>522</ele>
        <time>2025-09-25T12:02:26.000Z</time>
      </trkpt>
      <trkpt lat="43.98673" lon="2.9823">
        <ele>519</ele>
        <time>2025-09-25T12:02:41.000Z</time>
      </trkpt>
      <trkpt lat="43.98657" lon="2.9824">
        <ele>516</ele>
        <time>2025-09-25T12:02:58.000Z</time>
      </trkpt>
      <trkpt lat="43.9864" lon="2.9825">
        <ele>513</ele>
        <time>2025-09-25T12:03:14.000Z</time>
      </trkpt>
      <trkpt lat="43.98627" lon="2.98267">
        <ele>510</ele>
        <time>2025-09-25T12:03:30.000Z</time>
      </trkpt>
      <trkpt lat="43.98617" lon="2.98288">
        <ele>508</ele>
        <time>2025-09-25T12:03:46.000Z</time>
      </trkpt>
      <trkpt lat="43.98607" lon="2.98308">
        <ele>505</ele>
        <time>2025-09-25T12:04:01.000Z</time>
      </trkpt>
      <trkpt lat="43.9859" lon="2.98316">
        <ele>503</ele>
        <time>2025-09-25T12:04:18.000Z</time>
      </trkpt>
      <trkpt lat="43.98573" lon="2.98322">
        <ele>500</ele>
        <time>2025-09-25T12:04:33.000Z</time>
      </trkpt>
      <trkpt lat="43.98555" lon="2.98329">
        <ele>497</ele>
        <time>2025-09-25T12:04:49.000Z</time>
      </trkpt>
      <trkpt lat="43.98541" lon="2.98346">
        <ele>495</ele>
        <time>2025-09-25T12:05:05.000Z</time>
      </trkpt>
      <trkpt lat="43.98531" lon="2.98366">
        <ele>493</ele>
        <time>2025-09-25T12:05:20.000Z</time>
      </trkpt>
      <trkpt lat="43.98517" lon="2.98383">
        <ele>492</ele>
        <time>2025-09-25T12:06:06.000Z</time>
      </trkpt>
      <trkpt lat="43.98503" lon="2.98398">
        <ele>492</ele>
        <time>2025-09-25T12:06:30.000Z</time>
      </trkpt>
      <trkpt lat="43.9849" lon="2.98413">
        <ele>492</ele>
        <time>2025-09-25T12:06:48.000Z</time>
      </trkpt>
      <trkpt lat="43.9848" lon="2.98434">
        <ele>493</ele>
        <time>2025-09-25T12:07:09.000Z</time>
      </trkpt>
      <trkpt lat="43.98468" lon="2.98453">
        <ele>494</ele>
        <time>2025-09-25T12:07:30.000Z</time>
      </trkpt>
      <trkpt lat="43.98452" lon="2.98464">
        <ele>494</ele>
        <time>2025-09-25T12:07:51.000Z</time>
      </trkpt>
      <trkpt lat="43.98436" lon="2.98459">
        <ele>496</ele>
        <time>2025-09-25T12:08:25.000Z</time>
      </trkpt>
      <trkpt lat="43.98421" lon="2.98468">
        <ele>497</ele>
        <time>2025-09-25T12:08:44.000Z</time>
      </trkpt>
      <trkpt lat="43.98403" lon="2.98464">
        <ele>500</ele>
        <time>2025-09-25T12:09:01.000Z</time>
      </trkpt>
      <trkpt lat="43.98385" lon="2.98466">
        <ele>503</ele>
        <time>2025-09-25T12:09:31.000Z</time>
      </trkpt>
      <trkpt lat="43.98367" lon="2.98472">
        <ele>505</ele>
        <time>2025-09-25T12:10:04.000Z</time>
      </trkpt>
      <trkpt lat="43.9835" lon="2.98482">
        <ele>509</ele>
        <time>2025-09-25T12:10:27.000Z</time>
      </trkpt>
      <trkpt lat="43.98335" lon="2.98495">
        <ele>512</ele>
        <time>2025-09-25T12:10:54.000Z</time>
      </trkpt>
      <trkpt lat="43.98326" lon="2.98516">
        <ele>516</ele>
        <time>2025-09-25T12:11:19.000Z</time>
      </trkpt>
      <trkpt lat="43.9831" lon="2.9853">
        <ele>519</ele>
        <time>2025-09-25T12:11:37.000Z</time>
      </trkpt>
      <trkpt lat="43.98295" lon="2.98546">
        <ele>522</ele>
        <time>2025-09-25T12:14:45.000Z</time>
      </trkpt>
      <trkpt lat="43.9828" lon="2.98561">
        <ele>525</ele>
        <time>2025-09-25T12:15:03.000Z</time>
      </trkpt>
      <trkpt lat="43.98263" lon="2.98568">
        <ele>529</ele>
        <time>2025-09-25T12:15:27.000Z</time>
      </trkpt>
      <trkpt lat="43.98247" lon="2.9858">
        <ele>532</ele>
        <time>2025-09-25T12:16:12.000Z</time>
      </trkpt>
      <trkpt lat="43.98229" lon="2.98582">
        <ele>534</ele>
        <time>2025-09-25T12:16:32.000Z</time>
      </trkpt>
      <trkpt lat="43.98211" lon="2.98582">
        <ele>537</ele>
        <time>2025-09-25T12:17:09.000Z</time>
      </trkpt>
      <trkpt lat="43.98192" lon="2.98589">
        <ele>540</ele>
        <time>2025-09-25T12:17:26.000Z</time>
      </trkpt>
      <trkpt lat="43.98174" lon="2.98595">
        <ele>544</ele>
        <time>2025-09-25T12:17:42.000Z</time>
      </trkpt>
      <trkpt lat="43.98156" lon="2.98601">
        <ele>548</ele>
        <time>2025-09-25T12:18:05.000Z</time>
      </trkpt>
      <trkpt lat="43.9814" lon="2.98612">
        <ele>552</ele>
        <time>2025-09-25T12:18:43.000Z</time>
      </trkpt>
      <trkpt lat="43.98125" lon="2.98627">
        <ele>555</ele>
        <time>2025-09-25T12:19:08.000Z</time>
      </trkpt>
      <trkpt lat="43.98112" lon="2.98636">
        <ele>557</ele>
        <time>2025-09-25T12:20:26.000Z</time>
      </trkpt>
      <trkpt lat="43.98118" lon="2.98618">
        <ele>559</ele>
        <time>2025-09-25T12:22:04.000Z</time>
      </trkpt>
      <trkpt lat="43.98131" lon="2.98603">
        <ele>561</ele>
        <time>2025-09-25T12:22:23.000Z</time>
      </trkpt>
      <trkpt lat="43.98144" lon="2.98581">
        <ele>564</ele>
        <time>2025-09-25T12:22:37.000Z</time>
      </trkpt>
      <trkpt lat="43.98156" lon="2.98561">
        <ele>568</ele>
        <time>2025-09-25T12:22:53.000Z</time>
      </trkpt>
      <trkpt lat="43.98166" lon="2.9854">
        <ele>571</ele>
        <time>2025-09-25T12:23:20.000Z</time>
      </trkpt>
      <trkpt lat="43.98173" lon="2.98517">
        <ele>574</ele>
        <time>2025-09-25T12:23:46.000Z</time>
      </trkpt>
      <trkpt lat="43.98183" lon="2.98495">
        <ele>576</ele>
        <time>2025-09-25T12:24:05.000Z</time>
      </trkpt>
      <trkpt lat="43.98193" lon="2.98476">
        <ele>579</ele>
        <time>2025-09-25T12:24:25.000Z</time>
      </trkpt>
      <trkpt lat="43.98195" lon="2.98453">
        <ele>581</ele>
        <time>2025-09-25T12:24:43.000Z</time>
      </trkpt>
      <trkpt lat="43.98195" lon="2.98428">
        <ele>583</ele>
        <time>2025-09-25T12:25:11.000Z</time>
      </trkpt>
      <trkpt lat="43.98198" lon="2.98404">
        <ele>585</ele>
        <time>2025-09-25T12:25:33.000Z</time>
      </trkpt>
      <trkpt lat="43.98206" lon="2.98381">
        <ele>587</ele>
        <time>2025-09-25T12:29:57.000Z</time>
      </trkpt>
      <trkpt lat="43.9821" lon="2.98354">
        <ele>589</ele>
        <time>2025-09-25T12:30:13.000Z</time>
      </trkpt>
      <trkpt lat="43.98213" lon="2.98328">
        <ele>590</ele>
        <time>2025-09-25T12:30:30.000Z</time>
      </trkpt>
      <trkpt lat="43.98222" lon="2.98306">
        <ele>590</ele>
        <time>2025-09-25T12:30:49.000Z</time>
      </trkpt>
      <trkpt lat="43.98228" lon="2.98281">
        <ele>591</ele>
        <time>2025-09-25T12:31:11.000Z</time>
      </trkpt>
      <trkpt lat="43.98226" lon="2.98257">
        <ele>592</ele>
        <time>2025-09-25T12:31:29.000Z</time>
      </trkpt>
      <trkpt lat="43.98214" lon="2.9824">
        <ele>594</ele>
        <time>2025-09-25T12:31:49.000Z</time>
      </trkpt>
      <trkpt lat="43.98198" lon="2.98225">
        <ele>595</ele>
        <time>2025-09-25T12:32:08.000Z</time>
      </trkpt>
      <trkpt lat="43.98182" lon="2.98209">
        <ele>597</ele>
        <time>2025-09-25T12:32:31.000Z</time>
      </trkpt>
      <trkpt lat="43.98165" lon="2.982">
        <ele>598</ele>
        <time>2025-09-25T12:32:52.000Z</time>
      </trkpt>
      <trkpt lat="43.98147" lon="2.98195">
        <ele>599</ele>
        <time>2025-09-25T12:33:14.000Z</time>
      </trkpt>
      <trkpt lat="43.98133" lon="2.98179">
        <ele>599</ele>
        <time>2025-09-25T12:33:31.000Z</time>
      </trkpt>
    </trkseg>
  </trk>
</gpx>